Time;durP1;ratioP1;P1;durP2;ratioP2;P2;SDS_P1;SDS_P2;PMS_P1;PMS_P2;Temp;Humidity;BMP_temperature;BMP_pressure;BME280_temperature;BME280_humidity;BME280_pressure;Samples;Min_cycle;Max_cycle;Signal;HPM_P1;HPM_P2
2022/10/19 00:03:34;;;;;;;12.18;6.55;;;18.30;99.90;;;;;;10101247;28;20021;-65
2022/10/19 00:08:26;;;;;;;14.25;6.50;;;18.40;99.90;;;;;;10101685;28;20086;-65
2022/10/19 00:13:17;;;;;;;18.15;7.38;;;18.30;99.90;;;;;;10099950;28;20029;-64
2022/10/19 00:18:08;;;;;;;14.32;6.90;;;18.20;99.90;;;;;;10099935;28;20136;-62
2022/10/19 00:22:59;;;;;;;73.25;47.00;;;18.20;99.90;;;;;;10101300;28;20071;-62
2022/10/19 00:27:50;;;;;;;44.15;27.77;;;18.20;99.90;;;;;;10101259;28;20037;-65
2022/10/19 00:32:40;;;;;;;18.92;11.00;;;18.30;99.90;;;;;;10099831;28;20017;-62
2022/10/19 00:37:31;;;;;;;13.90;7.47;;;18.10;99.90;;;;;;10091447;28;20052;-62
2022/10/19 00:42:21;;;;;;;12.55;7.90;;;18.00;99.90;;;;;;10101305;28;20231;-66
2022/10/19 00:47:12;;;;;;;17.42;7.35;;;18.00;99.90;;;;;;10100986;28;20078;-64
2022/10/19 00:52:15;;;;;;;16.10;7.60;;;18.00;99.90;;;;;;10101289;28;20396;-63
2022/10/19 00:57:06;;;;;;;15.95;7.93;;;18.00;99.90;;;;;;10087655;28;20375;-64
2022/10/19 01:01:58;;;;;;;16.60;7.60;;;17.80;99.90;;;;;;10101978;28;20024;-63
2022/10/19 01:06:49;;;;;;;15.73;7.57;;;17.80;99.90;;;;;;10100390;28;20021;-63
2022/10/19 01:11:58;;;;;;;20.58;9.23;;;17.90;99.90;;;;;;10099452;28;20031;-65
2022/10/19 01:16:59;;;;;;;23.80;8.45;;;17.90;99.90;;;;;;10095217;28;20090;-62
2022/10/19 01:22:13;;;;;;;12.88;7.72;;;17.90;99.90;;;;;;10099940;28;20459;-63
2022/10/19 01:27:33;;;;;;;10.75;6.55;;;17.80;99.90;;;;;;10103977;28;20033;-63
2022/10/19 01:33:03;;;;;;;16.02;7.40;;;17.60;99.90;;;;;;10089118;28;20166;-66
2022/10/19 01:38:09;;;;;;;12.10;6.80;;;17.50;99.90;;;;;;10099252;28;20044;-67
2022/10/19 01:43:23;;;;;;;;;;;17.60;99.90;;;;;;10100468;28;20037;-63
2022/10/19 01:48:20;;;;;;;13.82;6.90;;;17.60;99.90;;;;;;10093086;28;19905;-62
2022/10/19 01:53:12;;;;;;;14.60;6.90;;;17.60;99.90;;;;;;10086791;28;20068;-66
2022/10/19 01:58:08;;;;;;;10.20;6.55;;;17.70;99.90;;;;;;10097861;28;20504;-62
2022/10/19 02:03:00;;;;;;;18.80;7.72;;;17.60;99.90;;;;;;10086745;28;20395;-62
2022/10/19 02:08:03;;;;;;;16.15;7.70;;;17.60;99.90;;;;;;10098398;28;20521;-63
2022/10/19 02:12:54;;;;;;;13.05;5.53;;;17.50;99.90;;;;;;10098137;28;20551;-62
2022/10/19 02:17:49;;;;;;;13.85;7.60;;;17.40;99.90;;;;;;10098634;28;20219;-63
2022/10/19 02:22:40;;;;;;;17.00;7.67;;;17.30;99.90;;;;;;10097018;28;20470;-65
2022/10/19 02:27:30;;;;;;;13.10;6.65;;;17.40;99.90;;;;;;10103037;28;20646;-64
2022/10/19 02:32:21;;;;;;;15.13;6.63;;;17.30;99.90;;;;;;10097944;28;20021;-68
2022/10/19 02:37:12;;;;;;;12.00;6.75;;;17.40;99.90;;;;;;10097869;28;20128;-63
2022/10/19 02:42:10;;;;;;;14.00;7.38;;;17.60;99.90;;;;;;10097464;28;20262;-62
2022/10/19 02:47:09;;;;;;;14.90;7.43;;;17.60;99.90;;;;;;10096779;28;20033;-61
2022/10/19 02:52:06;;;;;;;16.05;8.05;;;17.70;99.90;;;;;;10097411;28;20020;-63
2022/10/19 02:56:57;;;;;;;17.30;7.45;;;17.80;99.90;;;;;;10096103;28;20032;-67
2022/10/19 03:01:47;;;;;;;15.65;7.68;;;17.60;99.90;;;;;;10096986;28;20020;-63
2022/10/19 03:06:38;;;;;;;20.05;9.00;;;17.60;99.90;;;;;;10095433;28;20076;-67
2022/10/19 03:11:29;;;;;;;16.83;7.18;;;17.50;99.90;;;;;;10085872;28;20068;-65
2022/10/19 03:16:19;;;;;;;18.27;7.47;;;17.30;99.90;;;;;;10096470;28;20048;-64
2022/10/19 03:21:12;;;;;;;13.90;7.93;;;17.40;99.90;;;;;;10094950;28;20033;-66
2022/10/19 03:26:04;;;;;;;13.60;8.07;;;17.50;99.90;;;;;;10101205;28;20047;-65
2022/10/19 03:30:55;;;;;;;15.23;7.45;;;17.50;99.90;;;;;;10100310;28;20090;-67
2022/10/19 03:35:46;;;;;;;13.63;6.50;;;17.60;99.90;;;;;;10101065;28;20083;-67
2022/10/19 03:40:36;;;;;;;14.10;8.30;;;17.60;99.90;;;;;;10105293;28;20039;-66
2022/10/19 03:45:27;;;;;;;11.10;5.97;;;17.60;99.90;;;;;;10102122;28;20024;-67
2022/10/19 03:50:18;;;;;;;12.95;6.85;;;17.40;99.90;;;;;;10103960;28;20107;-66
2022/10/19 03:55:09;;;;;;;13.25;7.43;;;17.50;99.90;;;;;;10103471;28;20415;-66
2022/10/19 04:00:00;;;;;;;15.05;8.40;;;17.50;99.90;;;;;;10103798;28;20021;-66
2022/10/19 04:04:50;;;;;;;12.55;6.75;;;17.50;99.90;;;;;;10103558;28;20571;-67
2022/10/19 04:09:41;;;;;;;11.70;6.40;;;17.50;99.90;;;;;;10102574;28;20035;-62
2022/10/19 04:14:31;;;;;;;12.30;6.22;;;17.40;99.90;;;;;;10101402;28;20045;-66
2022/10/19 04:19:22;;;;;;;18.25;7.10;;;17.50;99.90;;;;;;10101500;28;20103;-61
2022/10/19 04:24:15;;;;;;;14.85;7.30;;;17.40;99.90;;;;;;10102378;28;20025;-65
2022/10/19 04:29:06;;;;;;;14.88;7.65;;;17.40;99.90;;;;;;10107651;28;20025;-63
2022/10/19 04:33:56;;;;;;;10.35;6.35;;;17.40;99.90;;;;;;10102519;28;20013;-62
2022/10/19 04:38:47;;;;;;;14.02;7.45;;;17.40;99.90;;;;;;10101695;28;20039;-63
2022/10/19 04:43:38;;;;;;;12.20;6.60;;;17.40;99.90;;;;;;10101496;28;20236;-64
2022/10/19 04:48:29;;;;;;;15.45;8.13;;;17.40;99.90;;;;;;10100305;28;20025;-63
2022/10/19 04:53:19;;;;;;;12.27;6.13;;;17.40;99.90;;;;;;10101440;28;20043;-64
2022/10/19 04:58:10;;;;;;;14.63;7.95;;;17.50;99.90;;;;;;10101322;28;20483;-63
2022/10/19 05:03:01;;;;;;;12.45;7.15;;;17.50;99.90;;;;;;10099610;28;20105;-63
2022/10/19 05:07:51;;;;;;;17.60;8.15;;;17.60;99.90;;;;;;10096867;28;20025;-66
2022/10/19 05:12:42;;;;;;;15.25;8.65;;;17.60;99.90;;;;;;10094811;28;20025;-64
2022/10/19 05:17:32;;;;;;;13.85;8.27;;;17.50;99.90;;;;;;10097169;28;20053;-63
2022/10/19 05:22:24;;;;;;;16.75;8.10;;;17.50;99.90;;;;;;10100309;28;20403;-66
2022/10/19 05:27:15;;;;;;;15.52;8.05;;;17.40;99.90;;;;;;10105247;28;20029;-63
2022/10/19 05:32:06;;;;;;;19.50;8.68;;;17.40;99.90;;;;;;10100227;28;20379;-67
2022/10/19 05:36:56;;;;;;;17.35;9.70;;;17.40;99.90;;;;;;10097962;28;20041;-66
2022/10/19 05:41:47;;;;;;;19.20;8.10;;;17.40;99.90;;;;;;10099282;28;20067;-67
2022/10/19 05:46:38;;;;;;;15.00;8.07;;;17.40;99.90;;;;;;10098833;28;20035;-67
2022/10/19 05:51:28;;;;;;;15.90;7.90;;;17.40;99.90;;;;;;10098137;28;20025;-66
2022/10/19 05:56:22;;;;;;;15.63;7.93;;;17.30;99.90;;;;;;10098649;28;20499;-68
2022/10/19 06:01:14;;;;;;;14.85;7.72;;;17.30;99.90;;;;;;10098858;28;20028;-62
2022/10/19 06:06:07;;;;;;;12.02;6.60;;;17.20;99.90;;;;;;10094895;28;20025;-64
2022/10/19 06:11:05;;;;;;;13.80;7.82;;;17.20;99.90;;;;;;10098377;28;20024;-63
2022/10/19 06:15:56;;;;;;;12.52;7.57;;;17.20;99.90;;;;;;10093078;28;20510;-63
2022/10/19 06:20:47;;;;;;;12.77;6.80;;;17.20;99.90;;;;;;10098123;28;20049;-63
2022/10/19 06:25:37;;;;;;;10.07;6.63;;;17.00;99.90;;;;;;10098059;28;20029;-64
2022/10/19 06:30:29;;;;;;;10.85;5.70;;;17.00;99.90;;;;;;10103782;28;20035;-65
2022/10/19 06:35:19;;;;;;;12.60;5.88;;;17.00;99.90;;;;;;10097817;28;20041;-63
2022/10/19 06:40:11;;;;;;;12.35;6.70;;;17.30;99.90;;;;;;10096837;28;20108;-66
2022/10/19 06:45:01;;;;;;;14.07;7.30;;;17.30;99.90;;;;;;10097526;28;20365;-67
2022/10/19 06:49:52;;;;;;;11.50;6.28;;;17.30;99.90;;;;;;10097441;28;20308;-65
2022/10/19 06:54:42;;;;;;;15.68;8.40;;;17.30;99.90;;;;;;10096947;28;20106;-63
2022/10/19 06:59:33;;;;;;;14.13;6.97;;;17.40;99.90;;;;;;10095462;28;20490;-66
2022/10/19 07:04:25;;;;;;;14.10;6.45;;;17.50;99.90;;;;;;10112407;28;20116;-66
2022/10/19 07:09:17;;;;;;;10.75;5.72;;;17.40;99.90;;;;;;10095492;28;20471;-66
2022/10/19 07:14:08;;;;;;;7.93;5.57;;;17.40;99.90;;;;;;10097007;28;20044;-67
2022/10/19 07:18:59;;;;;;;11.38;6.30;;;17.30;99.90;;;;;;10095173;28;20036;-63
2022/10/19 07:23:50;;;;;;;9.02;5.65;;;17.30;99.90;;;;;;10097473;28;20063;-66
2022/10/19 07:28:43;;;;;;;11.02;5.38;;;17.40;99.90;;;;;;10103615;28;20021;-68
2022/10/19 07:33:34;;;;;;;12.63;5.97;;;17.50;99.90;;;;;;10096017;28;20081;-63
2022/10/19 07:38:25;;;;;;;13.32;5.22;;;17.60;99.90;;;;;;10095432;28;20033;-65
2022/10/19 07:43:15;;;;;;;13.70;6.95;;;17.60;99.90;;;;;;10095733;28;20052;-67
2022/10/19 07:48:06;;;;;;;13.32;6.22;;;17.50;99.90;;;;;;10096019;28;20086;-62
2022/10/19 07:52:57;;;;;;;12.38;6.47;;;17.40;99.90;;;;;;10095437;28;20040;-65
2022/10/19 07:57:48;;;;;;;11.18;5.38;;;17.30;99.90;;;;;;10094607;28;20574;-67
2022/10/19 08:02:39;;;;;;;11.00;6.43;;;17.30;99.90;;;;;;10096255;28;20033;-66
2022/10/19 08:07:32;;;;;;;12.85;6.65;;;17.30;99.90;;;;;;10095007;28;20099;-63
2022/10/19 08:12:23;;;;;;;10.55;6.53;;;17.40;99.90;;;;;;10095418;28;20120;-66
2022/10/19 08:17:16;;;;;;;10.32;6.65;;;17.60;99.90;;;;;;10094648;28;20123;-66
2022/10/19 08:22:08;;;;;;;13.88;6.57;;;17.60;99.90;;;;;;10097683;28;20510;-64
2022/10/19 08:27:01;;;;;;;10.50;5.63;;;17.80;99.90;;;;;;10107747;28;20094;-62
2022/10/19 08:31:52;;;;;;;10.65;6.03;;;17.90;99.90;;;;;;10102370;28;20486;-63
2022/10/19 08:36:43;;;;;;;11.23;6.18;;;17.90;99.90;;;;;;10101774;28;20043;-63
2022/10/19 08:41:58;;;;;;;8.95;5.63;;;17.70;99.90;;;;;;10101296;28;20419;-65
2022/10/19 08:46:54;;;;;;;5.90;4.27;;;17.80;99.90;;;;;;10100952;28;20019;-65
2022/10/19 08:51:50;;;;;;;8.48;4.80;;;17.80;99.90;;;;;;10101929;28;20029;-63
2022/10/19 08:56:49;;;;;;;11.70;6.70;;;17.80;99.90;;;;;;10091194;28;20124;-62
2022/10/19 09:01:43;;;;;;;11.60;5.78;;;17.80;99.90;;;;;;10100553;28;20391;-65
2022/10/19 09:06:58;;;;;;;10.32;4.97;;;17.70;99.90;;;;;;10101246;28;20407;-64
2022/10/19 09:11:54;;;;;;;8.97;5.17;;;17.90;99.90;;;;;;10094886;28;20104;-66
2022/10/19 09:16:45;;;;;;;10.32;6.10;;;17.90;99.90;;;;;;10099467;28;20161;-62
2022/10/19 09:21:45;;;;;;;8.27;5.00;;;17.90;99.90;;;;;;10101039;28;20065;-66
2022/10/19 09:26:52;;;;;;;10.40;5.30;;;17.90;99.90;;;;;;10102652;28;20422;-64
2022/10/19 09:31:43;;;;;;;12.73;5.65;;;18.00;99.90;;;;;;10098838;28;20657;-65
2022/10/19 09:36:44;;;;;;;11.57;6.22;;;17.90;99.90;;;;;;10098430;28;20064;-63
2022/10/19 09:41:35;;;;;;;10.68;7.22;;;17.80;99.90;;;;;;10096191;28;20021;-64
2022/10/19 09:46:35;;;;;;;14.50;6.80;;;17.90;99.90;;;;;;10098944;28;20232;-66
2022/10/19 09:51:39;;;;;;;13.70;7.65;;;17.80;99.90;;;;;;10098196;28;20112;-63
2022/10/19 09:56:36;;;;;;;12.32;6.75;;;17.60;99.90;;;;;;10107229;28;20044;-62
2022/10/19 10:01:30;;;;;;;9.00;5.43;;;17.90;99.90;;;;;;10098130;28;20063;-61
2022/10/19 10:06:21;;;;;;;10.88;5.53;;;18.00;99.90;;;;;;10097971;28;20161;-62
2022/10/19 10:11:25;;;;;;;15.75;6.68;;;18.10;99.90;;;;;;10097714;28;20017;-64
2022/10/19 10:16:18;;;;;;;10.90;5.63;;;18.20;99.90;;;;;;10097120;28;20085;-63
2022/10/19 10:21:31;;;;;;;9.38;4.85;;;18.20;99.90;;;;;;10097264;28;20048;-63
2022/10/19 10:26:25;;;;;;;10.98;5.22;;;18.10;99.90;;;;;;10096918;28;20056;-63
2022/10/19 10:31:23;;;;;;;9.77;5.82;;;18.30;99.90;;;;;;10101914;28;20055;-64
2022/10/19 10:36:14;;;;;;;8.02;5.47;;;18.50;99.90;;;;;;10097517;28;20132;-62
2022/10/19 10:41:16;;;;;;;8.50;6.15;;;18.60;99.90;;;;;;10096680;28;20113;-64
2022/10/19 10:46:13;;;;;;;9.18;5.35;;;18.80;99.90;;;;;;10090923;28;20032;-62
2022/10/19 10:51:19;;;;;;;8.88;5.35;;;19.00;99.90;;;;;;10096756;28;20033;-63
2022/10/19 10:56:24;;;;;;;8.98;4.75;;;18.90;99.90;;;;;;10097064;28;20535;-63
2022/10/19 11:01:20;;;;;;;7.18;4.50;;;18.80;99.90;;;;;;10111179;28;20222;-62
2022/10/19 11:06:12;;;;;;;7.97;4.85;;;18.90;99.90;;;;;;10095712;28;20068;-62
2022/10/19 11:11:13;;;;;;;10.73;5.07;;;19.00;99.90;;;;;;10096296;28;20387;-63
2022/10/19 11:16:17;;;;;;;6.30;3.78;;;19.20;99.90;;;;;;10097262;28;20188;-65
2022/10/19 11:21:41;;;;;;;7.13;4.53;;;19.20;99.90;;;;;;10096604;28;20045;-61
2022/10/19 11:27:05;;;;;;;6.97;4.45;;;19.40;99.90;;;;;;10071130;28;20033;-64
2022/10/19 11:31:56;;;;;;;157.07;100.78;;;19.70;99.90;;;;;;10095290;28;20037;-71
2022/10/19 11:37:14;;;;;;;13.52;9.85;;;20.00;99.90;;;;;;10095738;28;20395;-62
2022/10/19 11:42:21;;;;;;;8.60;5.28;;;20.00;99.90;;;;;;10095002;28;20083;-63
2022/10/19 11:47:28;;;;;;;9.18;5.15;;;19.80;99.90;;;;;;10094930;28;20082;-62
2022/10/19 11:52:22;;;;;;;7.47;4.07;;;19.90;99.90;;;;;;10095673;28;20029;-63
2022/10/19 11:57:16;;;;;;;7.43;3.80;;;20.10;99.90;;;;;;10097924;28;20120;-67
2022/10/19 12:02:34;;;;;;;5.35;3.55;;;20.30;99.90;;;;;;10103133;28;20020;-63
2022/10/19 12:07:43;;;;;;;9.15;4.25;;;20.50;99.90;;;;;;10102597;28;20132;-63
2022/10/19 12:12:38;;;;;;;6.47;4.65;;;20.70;99.90;;;;;;10097449;28;20100;-63
2022/10/19 12:17:34;;;;;;;7.15;4.30;;;20.40;99.90;;;;;;10094759;28;20434;-64
2022/10/19 12:22:28;;;;;;;7.65;3.85;;;20.50;99.90;;;;;;10102486;28;20025;-62
2022/10/19 12:27:35;;;;;;;8.20;4.27;;;20.40;99.90;;;;;;10107204;28;20023;-62
2022/10/19 12:32:28;;;;;;;4.75;3.65;;;20.40;99.90;;;;;;10102080;28;20033;-62
2022/10/19 12:37:42;;;;;;;6.07;4.30;;;20.50;99.90;;;;;;10100723;28;20047;-64
2022/10/19 12:43:00;;;;;;;7.68;4.45;;;20.60;99.90;;;;;;10101813;28;20178;-63
2022/10/19 12:48:18;;;;;;;6.05;3.42;;;21.10;99.90;;;;;;10096993;28;20091;-61
2022/10/19 12:53:26;;;;;;;6.90;4.28;;;21.30;99.90;;;;;;10090579;28;20408;-63
2022/10/19 12:58:21;;;;;;;4.07;3.65;;;21.50;99.90;;;;;;10092997;28;20131;-63
2022/10/19 13:03:20;;;;;;;7.93;4.78;;;21.30;99.90;;;;;;10100666;28;20020;-62
2022/10/19 13:08:30;;;;;;;6.93;3.78;;;21.20;99.90;;;;;;10090775;28;20064;-66
2022/10/19 13:13:59;;;;;;;6.80;3.72;;;21.00;99.90;;;;;;10093698;28;20021;-62
2022/10/19 13:19:11;;;;;;;7.63;4.15;;;21.20;99.90;;;;;;10081489;28;20049;-62
2022/10/19 13:24:22;;;;;;;11.80;4.25;;;22.00;99.90;;;;;;10099060;28;20507;-62
2022/10/19 13:29:27;;;;;;;5.70;3.58;;;22.30;99.90;;;;;;10097635;28;20076;-62
2022/10/19 13:34:18;;;;;;;4.70;3.10;;;22.50;99.90;;;;;;10099825;28;20033;-62
2022/10/19 13:39:13;;;;;;;6.80;3.30;;;22.70;99.90;;;;;;10098368;28;20028;-63
2022/10/19 13:44:25;;;;;;;4.68;3.90;;;22.70;99.90;;;;;;10099249;28;20024;-66
2022/10/19 13:49:31;;;;;;;5.60;3.13;;;22.40;99.90;;;;;;10096933;28;20021;-64
2022/10/19 13:54:24;;;;;;;4.90;3.05;;;22.30;99.90;;;;;;10096987;28;20506;-63
2022/10/19 13:59:58;;;;;;;4.85;3.28;;;22.40;99.90;;;;;;10097832;28;20033;-63
2022/10/19 14:05:08;;;;;;;4.50;2.85;;;23.30;99.90;;;;;;10072009;28;20094;-62
2022/10/19 14:10:13;;;;;;;3.58;3.25;;;24.80;99.90;;;;;;10089220;28;20037;-64
2022/10/19 14:15:21;;;;;;;16.15;13.73;;;25.10;99.90;;;;;;10090861;28;20119;-63
2022/10/19 14:20:34;;;;;;;4.25;3.53;;;25.80;99.90;;;;;;10093555;28;20081;-63
2022/10/19 14:25:26;;;;;;;4.65;2.72;;;26.30;99.90;;;;;;10095535;28;20035;-62
2022/10/19 14:30:34;;;;;;;4.17;2.37;;;27.00;99.90;;;;;;10102360;28;20029;-63
2022/10/19 14:35:30;;;;;;;4.15;2.42;;;26.10;99.90;;;;;;10096781;28;20094;-63
2022/10/19 14:40:28;;;;;;;3.25;2.72;;;25.10;99.90;;;;;;10095781;28;20057;-62
2022/10/19 14:45:26;;;;;;;3.92;2.22;;;24.20;99.90;;;;;;10096347;28;20068;-63
2022/10/19 14:50:18;;;;;;;3.38;2.10;;;23.80;99.90;;;;;;10094651;28;20040;-63
2022/10/19 14:55:16;;;;;;;2.28;1.90;;;23.20;99.90;;;;;;10094784;28;20662;-63
2022/10/19 15:00:16;;;;;;;2.60;2.20;;;22.70;99.90;;;;;;10096256;28;20025;-63
2022/10/19 15:05:39;;;;;;;3.25;1.73;;;22.30;99.90;;;;;;10084878;28;20025;-63
2022/10/19 15:10:50;;;;;;;3.65;2.30;;;21.90;99.90;;;;;;10083845;28;20600;-62
2022/10/19 15:15:41;;;;;;;2.83;2.00;;;21.50;99.90;;;;;;10090463;28;20526;-62
2022/10/19 15:20:35;;;;;;;4.97;2.30;;;21.30;99.90;;;;;;10092283;28;20040;-62
2022/10/19 15:25:32;;;;;;;2.60;1.80;;;21.10;99.90;;;;;;10095620;28;20159;-62
2022/10/19 15:30:26;;;;;;;5.38;2.75;;;21.00;99.90;;;;;;10108183;28;20041;-61
2022/10/19 15:35:28;;;;;;;3.65;2.20;;;21.10;99.90;;;;;;10116836;28;20050;-63
2022/10/19 15:40:33;;;;;;;2.80;1.83;;;21.00;99.90;;;;;;10111415;28;20548;-62
2022/10/19 15:45:36;;;;;;;3.60;1.75;;;20.90;99.90;;;;;;10103744;28;20032;-63
2022/10/19 15:50:46;;;;;;;2.53;2.05;;;21.00;99.90;;;;;;10118724;28;20220;-64
2022/10/19 15:55:37;;;;;;;18.15;12.05;;;20.90;99.90;;;;;;10125727;28;20235;-63
2022/10/19 16:00:29;;;;;;;2.92;2.53;;;20.90;99.90;;;;;;10125557;28;20332;-65
2022/10/19 16:05:20;;;;;;;3.92;2.55;;;20.50;99.90;;;;;;10102297;28;20020;-63
2022/10/19 16:10:16;;;;;;;4.65;2.80;;;20.20;99.90;;;;;;10117529;28;20036;-66
2022/10/19 16:15:11;;;;;;;2.88;2.20;;;20.10;99.90;;;;;;10102204;28;20060;-64
2022/10/19 16:20:01;;;;;;;2.87;1.90;;;19.90;99.90;;;;;;10096431;28;20045;-63
2022/10/19 16:24:52;;;;;;;3.55;2.45;;;19.80;99.90;;;;;;10102096;28;20283;-66
2022/10/19 16:29:43;;;;;;;3.95;2.45;;;19.60;99.90;;;;;;10107495;28;20025;-62
2022/10/19 16:34:34;;;;;;;5.47;2.70;;;19.50;99.90;;;;;;10117418;28;20029;-63
2022/10/19 16:39:25;;;;;;;3.78;2.25;;;19.30;99.90;;;;;;10102101;28;20083;-65
2022/10/19 16:44:15;;;;;;;4.70;2.90;;;19.20;99.90;;;;;;10103632;28;20096;-66
2022/10/19 16:49:06;;;;;;;3.95;2.40;;;19.20;99.90;;;;;;10103721;28;20021;-63
2022/10/19 16:53:57;;;;;;;5.18;2.22;;;19.00;99.90;;;;;;10101491;28;20033;-63
2022/10/19 16:58:48;;;;;;;13.73;2.88;;;18.90;99.90;;;;;;10102189;28;20013;-63
2022/10/19 17:03:39;;;;;;;3.15;1.75;;;18.90;99.90;;;;;;10101192;28;20033;-65
2022/10/19 17:08:30;;;;;;;3.45;2.20;;;18.90;99.90;;;;;;10100561;28;20655;-62
2022/10/19 17:13:21;;;;;;;4.75;2.38;;;18.70;99.90;;;;;;10100823;28;20522;-66
2022/10/19 17:18:11;;;;;;;3.17;1.70;;;18.70;99.90;;;;;;10100260;28;20071;-67
2022/10/19 17:23:02;;;;;;;1.88;1.63;;;18.70;99.90;;;;;;10101085;28;20017;-66
2022/10/19 17:27:52;;;;;;;3.47;1.80;;;18.60;99.90;;;;;;10105775;28;20033;-63
2022/10/19 17:32:43;;;;;;;4.53;1.88;;;18.50;99.90;;;;;;10101244;28;20529;-61
2022/10/19 17:37:34;;;;;;;4.40;2.17;;;18.50;99.90;;;;;;10099832;28;20044;-65
2022/10/19 17:42:25;;;;;;;3.85;1.65;;;18.40;99.90;;;;;;10099814;28;20029;-65
2022/10/19 17:47:15;;;;;;;3.47;1.90;;;18.40;99.90;;;;;;10099203;28;20053;-64
2022/10/19 17:52:06;;;;;;;3.25;1.83;;;18.40;99.90;;;;;;10099539;28;20503;-66
2022/10/19 17:56:57;;;;;;;2.80;1.70;;;18.20;99.90;;;;;;10098690;28;20402;-62
2022/10/19 18:01:47;;;;;;;2.50;1.67;;;18.20;99.90;;;;;;10100345;28;20029;-64
2022/10/19 18:06:38;;;;;;;3.22;1.98;;;18.00;99.90;;;;;;10099296;28;20045;-61
2022/10/19 18:11:37;;;;;;;2.88;1.67;;;17.90;99.90;;;;;;10090000;28;20029;-64
2022/10/19 18:16:31;;;;;;;13.55;2.97;;;17.80;99.90;;;;;;10096322;28;20041;-63
2022/10/19 18:21:25;;;;;;;5.00;2.38;;;17.80;99.90;;;;;;10098388;28;20079;-64
2022/10/19 18:26:20;;;;;;;3.83;2.78;;;17.70;99.90;;;;;;10096478;28;20124;-63
2022/10/19 18:31:13;;;;;;;;;;;17.60;99.90;;;;;;10091922;28;20565;-62
2022/10/19 18:36:05;;;;;;;4.40;2.55;;;17.60;99.90;;;;;;10095945;28;19974;-63
2022/10/19 18:41:04;;;;;;;5.45;3.10;;;17.50;99.90;;;;;;10096355;28;20051;-62
2022/10/19 18:45:59;;;;;;;4.50;2.95;;;17.40;99.90;;;;;;10097168;28;20612;-63
2022/10/19 18:50:50;;;;;;;3.30;2.00;;;17.50;99.90;;;;;;10095649;28;20116;-61
2022/10/19 18:55:41;;;;;;;3.92;2.30;;;17.40;99.90;;;;;;10096818;28;20151;-62
2022/10/19 19:00:32;;;;;;;2.75;1.90;;;17.40;99.90;;;;;;10097567;28;20495;-63
2022/10/19 19:05:23;;;;;;;3.25;2.10;;;17.30;99.90;;;;;;10086319;28;20084;-61
2022/10/19 19:10:14;;;;;;;4.05;2.30;;;17.20;99.90;;;;;;10092541;28;20540;-62
2022/10/19 19:15:07;;;;;;;3.65;2.15;;;17.20;99.90;;;;;;10093668;28;20041;-62
2022/10/19 19:20:00;;;;;;;2.72;2.25;;;17.10;99.90;;;;;;10089188;28;20515;-63
2022/10/19 19:24:52;;;;;;;7.13;2.65;;;17.10;99.90;;;;;;10089750;28;20038;-65
2022/10/19 19:29:42;;;;;;;4.45;2.47;;;17.10;99.90;;;;;;10099216;28;20477;-63
2022/10/19 19:34:33;;;;;;;4.60;2.78;;;17.00;99.90;;;;;;10096208;28;20136;-64
2022/10/19 19:39:24;;;;;;;3.28;2.30;;;17.00;99.90;;;;;;10095654;28;20024;-62
2022/10/19 19:44:15;;;;;;;3.40;2.55;;;17.00;99.90;;;;;;10096449;28;20037;-63
2022/10/19 19:49:09;;;;;;;4.35;3.42;;;17.00;99.90;;;;;;10095148;28;20021;-65
2022/10/19 19:53:59;;;;;;;2.97;2.10;;;17.00;99.90;;;;;;10096276;28;20033;-62
2022/10/19 19:59:02;;;;;;;6.25;2.72;;;16.80;99.90;;;;;;10094950;28;20036;-63
2022/10/19 20:03:53;;;;;;;3.13;2.25;;;16.80;99.90;;;;;;10095757;28;20102;-63
2022/10/19 20:08:44;;;;;;;4.68;3.35;;;16.80;99.90;;;;;;10094049;28;20025;-64
2022/10/19 20:13:35;;;;;;;4.43;3.15;;;16.80;99.90;;;;;;10095625;28;20029;-65
2022/10/19 20:18:26;;;;;;;5.22;2.97;;;16.80;99.90;;;;;;10099076;28;20064;-63
2022/10/19 20:23:16;;;;;;;7.15;3.05;;;16.70;99.90;;;;;;10102563;28;20025;-63
2022/10/19 20:28:07;;;;;;;7.22;2.78;;;16.70;99.90;;;;;;10108600;28;20367;-62
2022/10/19 20:32:58;;;;;;;4.88;3.00;;;16.50;99.90;;;;;;10101892;28;20032;-62
2022/10/19 20:37:49;;;;;;;5.93;2.85;;;16.40;99.90;;;;;;10101762;28;20036;-63
2022/10/19 20:42:41;;;;;;;11.88;3.03;;;16.50;99.90;;;;;;10101734;28;20112;-66
2022/10/19 20:47:31;;;;;;;4.70;2.92;;;16.40;99.90;;;;;;10102032;28;20527;-63
2022/10/19 20:52:22;;;;;;;4.53;3.13;;;16.40;99.90;;;;;;10101391;28;20104;-63
2022/10/19 20:57:13;;;;;;;4.60;2.72;;;16.40;99.90;;;;;;10100082;28;20495;-62
2022/10/19 21:02:03;;;;;;;9.43;2.88;;;16.30;99.90;;;;;;10099529;28;20025;-61
2022/10/19 21:06:54;;;;;;;6.03;3.22;;;16.30;99.90;;;;;;10100276;28;20238;-61
2022/10/19 21:11:49;;;;;;;3.50;2.50;;;16.20;99.90;;;;;;10100734;28;20437;-66
2022/10/19 21:16:40;;;;;;;5.95;3.20;;;16.20;99.90;;;;;;10099468;28;20037;-67
2022/10/19 21:21:35;;;;;;;6.68;3.55;;;16.00;99.90;;;;;;10100703;28;20039;-63
2022/10/19 21:26:28;;;;;;;5.13;2.85;;;16.10;99.90;;;;;;10100595;28;20593;-62
2022/10/19 21:31:22;;;;;;;5.10;3.15;;;16.00;99.90;;;;;;10103575;28;20128;-62
2022/10/19 21:36:13;;;;;;;5.05;2.90;;;15.80;99.90;;;;;;10099249;28;20115;-61
2022/10/19 21:41:17;;;;;;;7.00;3.25;;;15.80;99.90;;;;;;10099148;28;20024;-63
2022/10/19 21:46:12;;;;;;;5.85;3.30;;;15.80;99.90;;;;;;10095027;28;20067;-62
2022/10/19 21:51:30;;;;;;;7.43;3.80;;;15.70;99.90;;;;;;10097340;28;20036;-64
2022/10/19 21:56:21;;;;;;;4.68;3.20;;;15.70;99.90;;;;;;10098202;28;20124;-61
2022/10/19 22:01:12;;;;;;;5.00;3.28;;;15.70;99.90;;;;;;10098532;28;20103;-62
2022/10/19 22:06:03;;;;;;;5.60;3.42;;;15.70;99.90;;;;;;10097933;28;20028;-61
2022/10/19 22:10:54;;;;;;;6.60;3.85;;;15.60;99.90;;;;;;10097803;28;20475;-62
2022/10/19 22:15:44;;;;;;;7.13;3.58;;;15.60;99.90;;;;;;10097718;28;20124;-62
2022/10/19 22:20:38;;;;;;;5.47;3.45;;;15.60;99.90;;;;;;10098017;28;20639;-62
2022/10/19 22:25:29;;;;;;;9.25;3.83;;;15.50;99.90;;;;;;10097052;28;20028;-62
2022/10/19 22:30:21;;;;;;;6.47;3.65;;;15.40;99.90;;;;;;10103963;28;20029;-62
2022/10/19 22:35:11;;;;;;;7.60;4.13;;;15.40;99.90;;;;;;10096738;28;20044;-63
2022/10/19 22:40:02;;;;;;;7.05;4.28;;;15.30;99.90;;;;;;10096842;28;20021;-63
2022/10/19 22:44:53;;;;;;;9.20;4.43;;;15.30;99.90;;;;;;10098140;28;20392;-62
2022/10/19 22:49:43;;;;;;;8.05;4.00;;;15.20;99.90;;;;;;10097218;28;20536;-63
2022/10/19 22:54:34;;;;;;;7.55;4.50;;;15.10;99.90;;;;;;10097382;28;20022;-61
2022/10/19 22:59:24;;;;;;;7.43;4.60;;;15.20;99.90;;;;;;10095619;28;20048;-62
2022/10/19 23:04:15;;;;;;;8.38;4.28;;;15.20;99.90;;;;;;10096632;28;20053;-65
2022/10/19 23:09:06;;;;;;;7.82;3.97;;;15.10;99.90;;;;;;10096037;28;20032;-61
2022/10/19 23:13:56;;;;;;;10.77;4.75;;;15.20;99.90;;;;;;10096107;28;20025;-60
2022/10/19 23:18:47;;;;;;;9.95;5.53;;;15.20;99.90;;;;;;10095783;28;20076;-62
2022/10/19 23:23:38;;;;;;;9.68;4.30;;;15.20;99.90;;;;;;10096140;28;20604;-62
2022/10/19 23:28:30;;;;;;;6.65;4.82;;;15.10;99.90;;;;;;10101922;28;20558;-62
2022/10/19 23:33:20;;;;;;;9.40;5.35;;;15.00;99.90;;;;;;10095149;28;20029;-63
2022/10/19 23:38:11;;;;;;;10.32;4.57;;;15.00;99.90;;;;;;10094366;28;20053;-65
2022/10/19 23:43:02;;;;;;;8.25;4.32;;;15.00;99.90;;;;;;10094139;28;20025;-61
2022/10/19 23:47:52;;;;;;;8.30;5.30;;;14.90;99.90;;;;;;10095053;28;20189;-64
2022/10/19 23:52:43;;;;;;;8.02;4.57;;;14.80;99.90;;;;;;10096709;28;20427;-65
2022/10/19 23:57:34;;;;;;;6.25;4.70;;;14.80;99.90;;;;;;10102280;28;20036;-63
